createdAt,value
2022-10-05T00:00:45.717Z,82.53
2022-10-05T00:01:52.786Z,82.84
2022-10-05T00:02:56.628Z,82.57
2022-10-05T00:04:06.244Z,82.70
2022-10-05T00:05:22.447Z,82.39
2022-10-05T00:06:27.063Z,82.68
2022-10-05T00:07:31.111Z,82.83
2022-10-05T00:08:35.051Z,82.72
2022-10-05T00:09:37.522Z,82.81
2022-10-05T00:10:41.064Z,82.64
2022-10-05T00:11:43.995Z,82.77
2022-10-05T00:12:46.556Z,82.94
2022-10-05T00:13:49.076Z,82.90
2022-10-05T00:14:53.480Z,82.60
2022-10-05T00:16:00.472Z,83.01
2022-10-05T00:17:05.053Z,82.94
2022-10-05T00:18:15.190Z,82.99
2022-10-05T00:19:23.487Z,82.88
2022-10-05T00:20:27.460Z,82.87
2022-10-05T00:21:30.309Z,82.93
2022-10-05T00:22:34.672Z,83.02
2022-10-05T00:23:36.260Z,82.84
2022-10-05T00:24:38.797Z,82.89
2022-10-05T00:25:40.305Z,83.06
2022-10-05T00:26:42.898Z,83.10
2022-10-05T00:27:48.585Z,83.12
2022-10-05T00:28:52.035Z,83.14
2022-10-05T00:29:59.896Z,83.07
2022-10-05T00:31:02.404Z,83.00
2022-10-05T00:32:04.132Z,83.26
2022-10-05T00:33:06.786Z,83.18
2022-10-05T00:34:08.299Z,83.07
2022-10-05T00:35:11.907Z,83.11
2022-10-05T00:36:14.250Z,83.04
2022-10-05T00:37:18.153Z,82.99
2022-10-05T00:38:19.859Z,82.80
2022-10-05T00:39:22.327Z,83.05
2022-10-05T00:40:36.631Z,82.92
2022-10-05T00:41:50.882Z,83.02
2022-10-05T00:43:04.735Z,82.87
2022-10-05T00:44:27.735Z,82.93
2022-10-05T00:45:33.359Z,83.25
2022-10-05T00:46:47.237Z,82.86
2022-10-05T00:48:05.272Z,82.98
2022-10-05T00:49:19.688Z,82.91
2022-10-05T00:50:55.124Z,83.29
2022-10-05T00:52:07.524Z,83.32
2022-10-05T00:53:24.054Z,82.81
2022-10-05T00:54:35.597Z,82.95
2022-10-05T00:55:50.143Z,83.08
2022-10-05T00:57:21.264Z,83.08
2022-10-05T00:58:33.034Z,83.10
2022-10-05T00:59:46.413Z,83.17
2022-10-05T01:01:00.296Z,83.45
2022-10-05T01:02:08.890Z,83.08
2022-10-05T01:03:18.542Z,83.17
2022-10-05T01:04:26.414Z,83.35
2022-10-05T01:05:46.514Z,83.25
2022-10-05T01:07:02.427Z,82.96
2022-10-05T01:08:16.344Z,83.46
2022-10-05T01:09:31.330Z,83.28
2022-10-05T01:10:44.199Z,83.25
2022-10-05T01:11:55.059Z,83.48
2022-10-05T01:13:06.681Z,83.38
2022-10-05T01:14:15.283Z,83.46
2022-10-05T01:15:27.878Z,83.38
2022-10-05T01:16:35.630Z,83.44
2022-10-05T01:17:45.677Z,83.15
2022-10-05T01:18:54.205Z,83.50
2022-10-05T01:20:12.674Z,83.68
2022-10-05T01:21:19.442Z,83.39
2022-10-05T01:22:37.380Z,83.52
2022-10-05T01:24:17.407Z,83.25
2022-10-05T01:25:27.844Z,83.61
2022-10-05T01:26:55.747Z,83.47
2022-10-05T01:28:04.806Z,83.63
2022-10-05T01:29:11.075Z,83.77
2022-10-05T01:30:16.763Z,83.70
2022-10-05T01:31:25.463Z,83.44
2022-10-05T01:32:35.335Z,83.80
2022-10-05T01:33:43.824Z,83.93
2022-10-05T01:34:55.002Z,83.86
2022-10-05T01:36:02.352Z,83.92
2022-10-05T01:37:12.899Z,83.84
2022-10-05T01:38:24.296Z,83.56
2022-10-05T01:39:35.954Z,83.95
2022-10-05T01:40:45.268Z,83.79
2022-10-05T01:41:53.732Z,83.78
2022-10-05T01:43:07.397Z,84.05
2022-10-05T01:44:14.079Z,84.09
2022-10-05T01:45:24.081Z,84.08
2022-10-05T01:46:34.614Z,84.43
2022-10-05T01:47:43.376Z,84.56
2022-10-05T01:48:57.935Z,84.37
2022-10-05T01:50:02.461Z,84.42
2022-10-05T01:51:12.596Z,84.53
2022-10-05T01:52:29.395Z,84.30
2022-10-05T01:53:45.472Z,84.25
2022-10-05T01:54:58.854Z,84.46
2022-10-05T01:56:10.779Z,84.67
2022-10-05T01:57:24.256Z,84.52
2022-10-05T01:58:39.056Z,84.46
2022-10-05T01:59:52.303Z,84.48
2022-10-05T02:01:02.516Z,84.64
2022-10-05T02:02:07.855Z,84.64
2022-10-05T02:03:18.229Z,84.76
2022-10-05T02:04:59.942Z,84.81
2022-10-05T02:05:57.173Z,84.84
2022-10-05T02:07:01.895Z,85.07
2022-10-05T02:08:08.351Z,84.69
2022-10-05T02:09:16.394Z,84.57
2022-10-05T02:10:24.831Z,85.07
2022-10-05T02:11:26.496Z,84.85
2022-10-05T02:12:33.719Z,85.12
2022-10-05T02:13:41.590Z,85.00
2022-10-05T02:14:48.321Z,84.79
2022-10-05T02:15:54.865Z,85.02
2022-10-05T02:17:03.060Z,84.94
2022-10-05T02:18:13.383Z,84.98
2022-10-05T02:19:21.896Z,84.94
2022-10-05T02:20:27.663Z,84.92
2022-10-05T02:21:32.098Z,85.12
2022-10-05T02:22:36.905Z,84.76
2022-10-05T02:23:42.407Z,85.02
2022-10-05T02:24:47.927Z,84.88
2022-10-05T02:25:53.019Z,84.95
2022-10-05T02:26:56.490Z,85.02
2022-10-05T02:28:05.463Z,84.78
2022-10-05T02:29:12.565Z,85.08
2022-10-05T02:30:18.135Z,85.25
2022-10-05T02:31:26.665Z,84.97
2022-10-05T02:32:35.091Z,85.12
2022-10-05T02:33:38.324Z,85.08
2022-10-05T02:34:41.398Z,85.07
2022-10-05T02:35:44.307Z,85.10
2022-10-05T02:36:53.018Z,85.04
2022-10-05T02:38:09.961Z,84.98
2022-10-05T02:39:20.852Z,85.31
2022-10-05T02:40:33.143Z,85.10
2022-10-05T02:41:47.169Z,85.08
2022-10-05T02:42:59.159Z,85.13
2022-10-05T02:44:12.041Z,84.96
2022-10-05T02:45:26.178Z,84.93
2022-10-05T02:46:36.729Z,85.12
2022-10-05T02:47:46.160Z,85.36
2022-10-05T02:48:58.314Z,84.97
2022-10-05T02:50:07.032Z,85.19
2022-10-05T02:51:21.208Z,85.53
2022-10-05T02:52:29.112Z,84.89
2022-10-05T02:53:38.722Z,84.87
2022-10-05T02:54:49.664Z,85.09
2022-10-05T02:56:01.808Z,85.10
2022-10-05T02:57:10.351Z,85.08
2022-10-05T02:58:15.934Z,85.08
2022-10-05T02:59:24.906Z,84.95
2022-10-05T03:00:32.954Z,84.96
2022-10-05T03:01:41.158Z,84.81
2022-10-05T03:02:49.816Z,84.79
2022-10-05T03:04:00.189Z,84.73
2022-10-05T03:05:16.040Z,84.74
2022-10-05T03:06:23.078Z,84.58
2022-10-05T03:07:30.697Z,84.70
2022-10-05T03:08:38.809Z,84.57
2022-10-05T03:09:49.620Z,84.54
2022-10-05T03:11:00.050Z,84.53
2022-10-05T03:12:12.081Z,84.71
2022-10-05T03:13:26.981Z,84.59
2022-10-05T03:14:38.097Z,84.36
2022-10-05T03:16:03.870Z,84.70
2022-10-05T03:17:13.266Z,84.11
2022-10-05T03:18:30.484Z,84.35
2022-10-05T03:19:48.712Z,84.25
2022-10-05T03:21:00.890Z,84.51
2022-10-05T03:22:12.045Z,84.32
2022-10-05T03:23:27.981Z,84.60
2022-10-05T03:24:41.636Z,84.53
2022-10-05T03:26:01.481Z,84.41
2022-10-05T03:27:14.388Z,84.33
2022-10-05T03:28:23.868Z,84.17
2022-10-05T03:29:34.218Z,84.37
2022-10-05T03:30:42.964Z,84.32
2022-10-05T03:31:51.334Z,84.36
2022-10-05T03:33:03.092Z,84.48
2022-10-05T03:34:09.048Z,84.31
2022-10-05T03:35:16.004Z,84.47
2022-10-05T03:36:28.037Z,84.19
2022-10-05T03:37:34.759Z,84.51
2022-10-05T03:38:48.645Z,84.15
2022-10-05T03:39:57.000Z,84.07
2022-10-05T03:41:10.573Z,83.91
2022-10-05T03:42:22.649Z,83.92
2022-10-05T03:43:50.639Z,84.15
2022-10-05T03:44:58.454Z,84.11
2022-10-05T03:46:08.525Z,84.09
2022-10-05T03:47:21.075Z,84.05
2022-10-05T03:48:28.983Z,83.97
2022-10-05T03:49:45.005Z,83.88
2022-10-05T03:51:02.415Z,84.06
2022-10-05T03:52:11.322Z,84.05
2022-10-05T03:53:19.227Z,84.02
2022-10-05T03:54:25.536Z,83.99
2022-10-05T03:55:33.685Z,84.02
2022-10-05T03:56:41.242Z,84.19
2022-10-05T03:57:43.999Z,84.05
2022-10-05T03:58:55.473Z,84.12
2022-10-05T04:00:01.130Z,84.08
2022-10-05T04:01:11.856Z,84.05
2022-10-05T04:02:22.791Z,84.15
2022-10-05T04:03:33.746Z,84.12
2022-10-05T04:04:40.725Z,83.59
2022-10-05T04:05:50.133Z,83.86
2022-10-05T04:06:54.667Z,83.84
2022-10-05T04:08:03.519Z,83.75
2022-10-05T04:09:11.669Z,83.68
2022-10-05T04:10:20.322Z,83.84
2022-10-05T04:11:27.643Z,83.65
2022-10-05T04:12:36.847Z,83.83
2022-10-05T04:13:43.283Z,83.73
2022-10-05T04:14:49.784Z,83.51
2022-10-05T04:15:59.654Z,83.76
2022-10-05T04:17:06.652Z,83.54
2022-10-05T04:18:21.438Z,83.58
2022-10-05T04:19:27.501Z,83.61
2022-10-05T04:20:35.592Z,83.49
2022-10-05T04:21:46.633Z,83.38
2022-10-05T04:22:59.407Z,83.61
2022-10-05T04:24:07.966Z,83.45
2022-10-05T04:25:16.825Z,83.60
2022-10-05T04:26:25.910Z,83.46
2022-10-05T04:27:33.365Z,83.36
2022-10-05T04:28:45.621Z,83.60
2022-10-05T04:29:53.554Z,83.42
2022-10-05T04:30:56.122Z,83.58
2022-10-05T04:32:12.326Z,83.49
2022-10-05T04:33:16.297Z,83.28
2022-10-05T04:34:38.307Z,83.44
2022-10-05T04:35:53.679Z,83.37
2022-10-05T04:37:01.257Z,83.44
2022-10-05T04:38:17.677Z,83.37
2022-10-05T04:39:28.337Z,83.48
2022-10-05T04:40:45.319Z,83.24
2022-10-05T04:42:00.453Z,83.12
2022-10-05T04:43:09.961Z,83.26
2022-10-05T04:44:31.646Z,83.20
2022-10-05T04:45:46.478Z,83.23
2022-10-05T04:47:04.092Z,83.18
2022-10-05T04:48:25.681Z,83.40
2022-10-05T04:49:50.445Z,83.26
2022-10-05T04:51:05.078Z,83.34
2022-10-05T04:52:14.988Z,83.33
2022-10-05T04:53:26.624Z,83.29
2022-10-05T04:54:44.294Z,83.19
2022-10-05T04:55:54.642Z,83.10
2022-10-05T04:56:59.899Z,83.06
2022-10-05T04:58:11.103Z,83.22
2022-10-05T04:59:56.102Z,82.98
2022-10-05T05:01:09.689Z,82.82
2022-10-05T05:02:20.815Z,82.82
2022-10-05T05:03:50.638Z,82.56
2022-10-05T05:05:12.517Z,82.85
2022-10-05T05:06:30.557Z,82.44
2022-10-05T05:07:44.868Z,82.56
2022-10-05T05:09:04.558Z,82.79
2022-10-05T05:10:29.246Z,82.66
2022-10-05T05:11:42.631Z,82.56
2022-10-05T05:12:56.052Z,82.54
2022-10-05T05:14:18.515Z,82.46
2022-10-05T05:15:34.403Z,82.38
2022-10-05T05:16:40.298Z,82.31
2022-10-05T05:17:56.854Z,82.42
2022-10-05T05:19:16.814Z,82.17
2022-10-05T05:20:23.332Z,82.29
2022-10-05T05:21:37.927Z,82.32
2022-10-05T05:22:47.611Z,82.21
2022-10-05T05:23:55.804Z,82.72
2022-10-05T05:25:18.613Z,82.36
2022-10-05T05:26:28.595Z,82.02
2022-10-05T05:27:42.316Z,81.83
2022-10-05T05:28:50.691Z,82.03
2022-10-05T05:30:03.020Z,82.10
2022-10-05T05:31:13.990Z,81.88
2022-10-05T05:32:23.369Z,81.97
2022-10-05T05:33:32.833Z,81.79
2022-10-05T05:34:49.693Z,81.83
2022-10-05T05:36:10.720Z,81.88
2022-10-05T05:37:23.533Z,81.99
2022-10-05T05:38:32.551Z,81.61
2022-10-05T05:39:42.815Z,81.78
2022-10-05T05:40:52.426Z,81.43
2022-10-05T05:42:12.721Z,81.55
2022-10-05T05:43:24.558Z,81.80
2022-10-05T05:44:29.187Z,81.72
2022-10-05T05:45:38.359Z,81.53
2022-10-05T05:48:18.301Z,81.56
2022-10-05T05:49:24.837Z,81.27
2022-10-05T05:50:41.416Z,81.54
2022-10-05T05:51:50.269Z,81.48
2022-10-05T05:52:59.680Z,81.45
2022-10-05T05:54:20.180Z,81.48
2022-10-05T05:55:29.883Z,81.31
2022-10-05T05:56:38.452Z,81.43
2022-10-05T05:57:45.435Z,81.28
2022-10-05T05:58:53.400Z,81.26
2022-10-05T06:00:05.431Z,81.29
2022-10-05T06:01:35.481Z,81.06
2022-10-05T06:02:43.874Z,81.03
2022-10-05T06:03:50.598Z,81.23
2022-10-05T06:04:57.757Z,81.17
2022-10-05T06:06:05.279Z,81.15
2022-10-05T06:07:14.786Z,81.07
2022-10-05T06:08:24.697Z,81.21
2022-10-05T06:09:33.790Z,81.01
2022-10-05T06:10:43.303Z,80.88
2022-10-05T06:11:50.306Z,80.77
2022-10-05T06:13:00.900Z,80.79
2022-10-05T06:14:12.225Z,80.91
2022-10-05T06:15:33.768Z,80.94
2022-10-05T06:16:40.606Z,80.78
2022-10-05T06:17:48.077Z,80.80
2022-10-05T06:18:55.921Z,80.57
2022-10-05T06:20:05.214Z,80.83
2022-10-05T06:21:20.585Z,80.86
2022-10-05T06:22:29.041Z,80.60
2022-10-05T06:23:44.092Z,80.66
2022-10-05T06:24:59.328Z,80.62
2022-10-05T06:26:14.713Z,80.58
2022-10-05T06:27:26.946Z,80.57
2022-10-05T06:28:30.661Z,80.57
2022-10-05T06:29:44.327Z,80.75
2022-10-05T06:30:57.046Z,80.48
2022-10-05T06:32:06.064Z,80.35
2022-10-05T06:33:21.716Z,80.42
2022-10-05T06:34:49.586Z,80.37
2022-10-05T06:36:07.905Z,80.49
2022-10-05T06:37:18.469Z,80.17
2022-10-05T06:38:44.672Z,80.14
2022-10-05T06:40:17.714Z,80.17
2022-10-05T06:41:27.461Z,80.17
2022-10-05T06:42:56.701Z,80.13
2022-10-05T06:44:00.596Z,80.21
2022-10-05T06:45:11.250Z,79.96
2022-10-05T06:46:19.101Z,79.97
2022-10-05T06:47:30.018Z,79.89
2022-10-05T06:48:46.836Z,79.98
2022-10-05T06:49:54.501Z,80.03
2022-10-05T06:51:00.859Z,80.11
2022-10-05T06:52:13.115Z,79.95
2022-10-05T06:53:31.223Z,79.88
2022-10-05T06:54:49.753Z,79.90
2022-10-05T06:55:59.172Z,79.65
2022-10-05T06:57:10.955Z,79.56
2022-10-05T06:58:39.241Z,79.77
2022-10-05T06:59:50.246Z,79.87
2022-10-05T07:00:57.317Z,79.57
2022-10-05T07:02:08.978Z,79.72
2022-10-05T07:03:22.930Z,79.63
2022-10-05T07:04:41.669Z,79.52
2022-10-05T07:05:51.459Z,79.30
2022-10-05T07:07:00.451Z,79.45
2022-10-05T07:08:08.038Z,79.44
2022-10-05T07:09:27.581Z,79.54
2022-10-05T07:10:32.846Z,79.57
2022-10-05T07:11:55.817Z,79.14
2022-10-05T07:13:16.017Z,79.31
2022-10-05T07:14:28.029Z,79.10
2022-10-05T07:15:41.313Z,79.02
2022-10-05T07:16:56.070Z,79.09
2022-10-05T07:18:13.390Z,79.05
2022-10-05T07:19:29.493Z,79.19
2022-10-05T07:20:40.113Z,78.84
2022-10-05T07:21:47.903Z,78.87
2022-10-05T07:23:13.072Z,78.96
2022-10-05T07:24:30.143Z,78.90
2022-10-05T07:25:36.866Z,78.88
2022-10-05T07:26:46.452Z,78.71
2022-10-05T07:27:55.663Z,78.87
2022-10-05T07:29:23.658Z,78.74
2022-10-05T07:30:26.335Z,78.76
2022-10-05T07:31:33.370Z,78.66
2022-10-05T07:32:40.569Z,78.63
2022-10-05T07:33:48.100Z,78.55
2022-10-05T07:35:03.865Z,78.48
2022-10-05T07:36:32.237Z,78.40
2022-10-05T07:37:54.201Z,78.58
2022-10-05T07:39:05.073Z,78.56
2022-10-05T07:40:16.239Z,78.46
2022-10-05T07:41:23.861Z,78.39
2022-10-05T07:42:48.967Z,78.37
2022-10-05T07:44:02.785Z,78.37
2022-10-05T07:45:14.805Z,78.38
2022-10-05T07:46:24.717Z,78.33
2022-10-05T07:47:34.651Z,78.42
2022-10-05T07:48:51.188Z,78.58
2022-10-05T07:50:03.964Z,78.23
2022-10-05T07:51:13.075Z,78.10
2022-10-05T07:52:19.189Z,77.99
2022-10-05T07:53:25.998Z,77.98
2022-10-05T07:54:35.730Z,78.00
2022-10-05T07:55:44.620Z,77.93
2022-10-05T07:56:51.968Z,77.66
2022-10-05T07:58:05.850Z,77.85
2022-10-05T07:59:15.891Z,77.67
2022-10-05T08:00:20.732Z,77.57
2022-10-05T08:01:27.780Z,77.46
2022-10-05T08:03:56.978Z,77.66
2022-10-05T08:05:04.049Z,77.57
2022-10-05T08:06:11.294Z,77.49
2022-10-05T08:07:17.601Z,77.37
2022-10-05T08:08:28.023Z,77.37
2022-10-05T08:09:39.893Z,77.19
2022-10-05T08:10:49.773Z,77.22
2022-10-05T08:11:58.295Z,76.98
2022-10-05T08:13:11.737Z,77.03
2022-10-05T08:14:20.586Z,76.90
2022-10-05T08:15:27.270Z,76.91
2022-10-05T08:16:37.849Z,76.94
2022-10-05T08:17:48.576Z,76.83
2022-10-05T08:18:56.940Z,76.62
2022-10-05T08:20:10.972Z,76.58
2022-10-05T08:21:17.096Z,76.48
2022-10-05T08:22:25.795Z,76.44
2022-10-05T08:23:35.878Z,76.22
2022-10-05T08:24:44.568Z,76.26
2022-10-05T08:25:58.126Z,76.28
2022-10-05T08:27:06.040Z,76.03
2022-10-05T08:28:12.899Z,76.06
2022-10-05T08:29:22.786Z,75.97
2022-10-05T08:30:25.009Z,75.86
2022-10-05T08:31:33.386Z,75.75
2022-10-05T08:32:41.069Z,75.71
2022-10-05T08:33:56.196Z,75.72
2022-10-05T08:35:04.397Z,75.56
2022-10-05T08:36:11.581Z,75.42
2022-10-05T08:37:21.752Z,75.43
2022-10-05T08:38:31.266Z,75.32
2022-10-05T08:39:40.013Z,75.26
2022-10-05T08:41:09.374Z,75.26
2022-10-05T08:42:41.836Z,75.11
2022-10-05T08:44:04.532Z,75.19
2022-10-05T08:45:22.408Z,75.05
2022-10-05T08:46:40.936Z,75.00
2022-10-05T08:48:07.315Z,74.90
2022-10-05T08:49:35.356Z,74.87
2022-10-05T08:51:08.605Z,74.85
2022-10-05T08:52:30.172Z,74.84
2022-10-05T08:53:50.953Z,74.75
2022-10-05T08:55:37.886Z,74.64
2022-10-05T08:56:45.233Z,74.65
2022-10-05T08:58:17.327Z,74.45
2022-10-05T08:59:58.656Z,74.36
2022-10-05T09:01:10.174Z,74.30
2022-10-05T09:02:24.994Z,74.16
2022-10-05T09:03:49.167Z,74.17
2022-10-05T09:05:14.281Z,74.14
2022-10-05T09:06:26.564Z,74.13
2022-10-05T09:08:00.501Z,74.03
2022-10-05T09:09:29.153Z,73.92
2022-10-05T09:11:02.410Z,73.69
2022-10-05T09:12:46.828Z,73.87
2022-10-05T09:14:06.081Z,73.80
2022-10-05T09:15:31.330Z,73.82
2022-10-05T09:16:48.939Z,73.86
2022-10-05T09:18:30.547Z,73.65
2022-10-05T09:19:53.931Z,73.60
2022-10-05T09:21:02.752Z,73.60
2022-10-05T09:22:15.907Z,73.43
2022-10-05T09:23:34.437Z,73.54
2022-10-05T09:24:53.862Z,73.41
2022-10-05T09:26:00.422Z,73.36
2022-10-05T09:27:10.162Z,73.33
2022-10-05T09:28:23.024Z,73.23
2022-10-05T09:29:52.824Z,73.06
2022-10-05T09:31:34.378Z,73.25
2022-10-05T09:33:25.573Z,73.29
2022-10-05T09:34:57.087Z,73.01
2022-10-05T09:36:27.944Z,72.96
2022-10-05T09:37:49.378Z,72.97
2022-10-05T09:39:18.604Z,72.94
2022-10-05T09:40:47.738Z,72.60
2022-10-05T09:42:02.089Z,72.64
2022-10-05T09:43:21.305Z,72.64
2022-10-05T09:44:43.243Z,72.69
2022-10-05T09:46:08.803Z,72.54
2022-10-05T09:47:41.411Z,72.77
2022-10-05T09:49:17.352Z,72.55
2022-10-05T09:50:50.783Z,72.71
2022-10-05T09:52:07.740Z,72.46
2022-10-05T09:53:29.890Z,72.51
2022-10-05T09:55:05.438Z,72.42
2022-10-05T09:56:23.510Z,72.50
2022-10-05T09:58:00.881Z,72.39
2022-10-05T09:59:37.875Z,72.59
2022-10-05T10:01:03.799Z,72.46
2022-10-05T10:02:43.314Z,72.57
2022-10-05T10:04:13.492Z,72.33
2022-10-05T10:05:47.039Z,72.45
2022-10-05T10:07:27.499Z,72.32
2022-10-05T10:08:43.917Z,72.31
2022-10-05T10:10:08.743Z,72.11
2022-10-05T10:11:45.340Z,71.98
2022-10-05T10:13:09.575Z,72.17
2022-10-05T10:14:38.186Z,72.10
2022-10-05T10:16:09.225Z,71.92
2022-10-05T10:17:48.291Z,72.10
2022-10-05T10:19:20.794Z,72.11
2022-10-05T10:20:41.072Z,71.85
2022-10-05T10:22:22.490Z,71.56
2022-10-05T10:23:38.878Z,71.50
2022-10-05T10:25:19.138Z,71.55
2022-10-05T10:27:07.512Z,71.35
2022-10-05T10:28:49.388Z,71.43
2022-10-05T10:30:18.865Z,71.26
2022-10-05T10:31:46.032Z,71.03
2022-10-05T10:33:17.824Z,70.98
2022-10-05T10:34:52.133Z,70.98
2022-10-05T10:36:07.103Z,70.86
2022-10-05T10:37:39.695Z,70.84
2022-10-05T10:38:59.464Z,70.36
2022-10-05T10:40:26.008Z,70.14
2022-10-05T10:41:52.393Z,70.16
2022-10-05T10:43:30.286Z,70.29
2022-10-05T10:45:07.902Z,70.33
2022-10-05T10:46:26.470Z,70.42
2022-10-05T10:47:40.668Z,69.88
2022-10-05T10:48:58.334Z,70.19
2022-10-05T10:50:27.205Z,69.91
2022-10-05T10:52:04.887Z,69.75
2022-10-05T10:53:23.670Z,69.46
2022-10-05T10:54:52.706Z,69.14
2022-10-05T10:56:16.463Z,69.14
2022-10-05T10:57:32.023Z,68.89
2022-10-05T10:59:05.368Z,68.46
2022-10-05T11:00:40.376Z,68.62
2022-10-05T11:02:02.902Z,68.23
2022-10-05T11:03:46.806Z,68.20
2022-10-05T11:05:04.216Z,67.86
2022-10-05T11:06:21.693Z,67.61
2022-10-05T11:07:51.333Z,67.21
2022-10-05T11:09:11.203Z,67.03
2022-10-05T11:10:47.038Z,66.97
2022-10-05T11:12:22.767Z,66.65
2022-10-05T11:14:02.732Z,66.27
2022-10-05T11:15:23.862Z,66.29
2022-10-05T11:16:51.653Z,66.14
2022-10-05T11:18:18.006Z,65.77
2022-10-05T11:20:03.188Z,65.90
2022-10-05T11:21:25.535Z,65.64
2022-10-05T11:23:07.093Z,64.97
2022-10-05T11:24:32.568Z,64.80
2022-10-05T11:25:50.472Z,64.67
2022-10-05T11:27:09.725Z,64.64
2022-10-05T11:28:39.381Z,64.90
2022-10-05T11:30:05.031Z,64.92
2022-10-05T11:31:54.078Z,64.67
2022-10-05T11:33:35.226Z,64.91
2022-10-05T11:35:04.907Z,64.85
2022-10-05T11:36:31.158Z,64.89
2022-10-05T11:37:51.099Z,65.19
2022-10-05T11:39:25.280Z,64.76
2022-10-05T11:40:44.787Z,64.80
2022-10-05T11:42:16.884Z,65.33
2022-10-05T11:43:53.928Z,65.31
2022-10-05T11:45:22.626Z,65.80
2022-10-05T11:46:29.884Z,65.57
2022-10-05T11:47:37.023Z,66.08
2022-10-05T11:48:55.442Z,66.11
2022-10-05T11:50:11.427Z,66.23
2022-10-05T11:51:29.566Z,66.41
2022-10-05T11:52:36.799Z,65.89
2022-10-05T11:53:43.343Z,66.28
2022-10-05T11:55:15.872Z,65.82
2022-10-05T11:56:27.216Z,65.93
2022-10-05T11:57:37.633Z,66.08
2022-10-05T11:58:45.794Z,66.01
2022-10-05T11:59:53.626Z,66.03
2022-10-05T12:01:01.797Z,65.88
2022-10-05T12:02:39.996Z,65.82
2022-10-05T12:03:58.054Z,66.12
2022-10-05T12:05:10.683Z,66.45
2022-10-05T12:06:27.316Z,66.39
2022-10-05T12:07:40.150Z,66.16
2022-10-05T12:08:53.138Z,66.49
2022-10-05T12:10:17.460Z,66.51
2022-10-05T12:11:37.797Z,66.56
2022-10-05T12:12:48.297Z,66.68
2022-10-05T12:13:58.736Z,66.39
2022-10-05T12:15:08.541Z,66.69
2022-10-05T12:16:19.285Z,66.37
2022-10-05T12:17:27.961Z,66.40
2022-10-05T12:18:56.626Z,66.76
2022-10-05T12:20:04.058Z,66.68
2022-10-05T12:21:14.740Z,66.67
2022-10-05T12:22:22.513Z,66.42
2022-10-05T12:23:33.481Z,66.45
2022-10-05T12:25:01.500Z,66.47
2022-10-05T12:26:07.813Z,66.46
2022-10-05T12:27:16.959Z,66.61
2022-10-05T12:28:28.590Z,66.29
2022-10-05T12:29:41.476Z,66.55
2022-10-05T12:31:11.693Z,66.62
2022-10-05T12:32:20.121Z,66.61
2022-10-05T12:33:28.332Z,66.49
2022-10-05T12:34:47.637Z,66.66
2022-10-05T12:35:56.890Z,66.47
2022-10-05T12:37:05.940Z,66.23
2022-10-05T12:38:17.596Z,66.28
2022-10-05T12:39:27.881Z,66.26
2022-10-05T12:40:40.431Z,66.19
2022-10-05T12:41:50.419Z,66.36
2022-10-05T12:43:01.224Z,66.15
2022-10-05T12:44:17.243Z,66.36
2022-10-05T12:45:27.359Z,66.07
2022-10-05T12:46:39.551Z,66.09
2022-10-05T12:48:02.065Z,65.93
2022-10-05T12:49:38.773Z,66.14
2022-10-05T12:50:42.655Z,65.36
2022-10-05T12:51:56.731Z,65.07
2022-10-05T12:53:23.201Z,64.86
2022-10-05T12:54:37.927Z,65.03
2022-10-05T12:55:47.189Z,64.89
2022-10-05T12:56:55.395Z,64.65
2022-10-05T12:58:06.504Z,64.42
2022-10-05T12:59:20.290Z,64.17
2022-10-05T13:00:23.453Z,63.87
2022-10-05T13:01:36.235Z,63.61
2022-10-05T13:02:43.587Z,63.40
2022-10-05T13:03:52.494Z,63.42
2022-10-05T13:05:05.252Z,63.48
2022-10-05T13:06:17.432Z,63.35
2022-10-05T13:07:33.375Z,63.17
2022-10-05T13:08:45.892Z,62.75
2022-10-05T13:09:55.867Z,62.41
2022-10-05T13:11:04.833Z,62.58
2022-10-05T13:12:19.010Z,62.37
2022-10-05T13:13:34.286Z,62.02
2022-10-05T13:14:51.629Z,62.07
2022-10-05T13:16:01.219Z,61.88
2022-10-05T13:17:11.111Z,61.69
2022-10-05T13:18:20.553Z,61.55
2022-10-05T13:19:35.269Z,61.54
2022-10-05T13:20:45.786Z,61.73
2022-10-05T13:22:05.172Z,61.66
2022-10-05T13:23:18.269Z,61.30
2022-10-05T13:24:23.884Z,61.37
2022-10-05T13:25:32.547Z,60.99
2022-10-05T13:26:38.795Z,61.22
2022-10-05T13:27:44.885Z,60.91
2022-10-05T13:28:55.531Z,60.85
2022-10-05T13:30:03.884Z,61.15
2022-10-05T13:31:13.354Z,60.76
2022-10-05T13:32:19.851Z,61.32
2022-10-05T13:33:32.719Z,61.14
2022-10-05T13:34:40.146Z,61.32
2022-10-05T13:35:48.291Z,60.73
2022-10-05T13:37:03.853Z,60.94
2022-10-05T13:38:17.582Z,60.71
2022-10-05T13:39:36.396Z,61.46
2022-10-05T13:40:44.842Z,60.91
2022-10-05T13:41:55.440Z,61.25
2022-10-05T13:43:03.888Z,61.53
2022-10-05T13:44:18.458Z,61.15
2022-10-05T13:45:23.625Z,61.32
2022-10-05T13:46:33.142Z,61.34
2022-10-05T13:47:41.984Z,61.74
2022-10-05T13:49:01.136Z,61.29
2022-10-05T13:50:14.860Z,61.47
2022-10-05T13:51:21.981Z,61.76
2022-10-05T13:52:34.657Z,61.41
2022-10-05T13:53:46.220Z,61.57
2022-10-05T13:54:55.755Z,61.45
2022-10-05T13:56:00.994Z,61.63
2022-10-05T13:57:17.074Z,61.68
2022-10-05T13:58:29.267Z,61.95
2022-10-05T13:59:37.957Z,61.83
2022-10-05T14:00:49.366Z,61.67
2022-10-05T14:01:58.257Z,62.13
2022-10-05T14:03:01.854Z,62.15
2022-10-05T14:04:16.979Z,61.90
2022-10-05T14:05:21.061Z,62.17
2022-10-05T14:06:30.181Z,61.99
2022-10-05T14:07:34.986Z,61.90
2022-10-05T14:08:49.913Z,62.04
2022-10-05T14:09:51.969Z,61.83
2022-10-05T14:10:56.001Z,61.93
2022-10-05T14:12:15.335Z,62.02
2022-10-05T14:13:21.000Z,61.88
2022-10-05T14:14:28.121Z,62.42
2022-10-05T14:15:37.368Z,62.47
2022-10-05T14:16:51.479Z,62.37
2022-10-05T14:17:54.081Z,62.37
2022-10-05T14:19:09.906Z,62.25
2022-10-05T14:20:22.661Z,61.88
2022-10-05T14:21:27.574Z,62.07
2022-10-05T14:22:30.298Z,61.91
2022-10-05T14:23:33.620Z,61.74
2022-10-05T14:24:47.006Z,61.79
2022-10-05T14:25:53.847Z,61.61
2022-10-05T14:26:57.587Z,61.90
2022-10-05T14:28:03.270Z,62.06
2022-10-05T14:29:18.434Z,62.04
2022-10-05T14:30:23.615Z,61.48
2022-10-05T14:31:33.858Z,61.48
2022-10-05T14:32:51.748Z,61.74
2022-10-05T14:33:54.428Z,61.82
2022-10-05T14:35:05.087Z,61.59
2022-10-05T14:36:16.105Z,61.96
2022-10-05T14:37:19.298Z,62.21
2022-10-05T14:38:25.599Z,61.66
2022-10-05T14:39:28.836Z,61.69
2022-10-05T14:40:34.536Z,61.73
2022-10-05T14:41:37.543Z,62.09
2022-10-05T14:42:47.196Z,61.83
2022-10-05T14:43:52.205Z,61.82
2022-10-05T14:44:59.392Z,61.83
2022-10-05T14:46:05.519Z,61.66
2022-10-05T14:47:20.989Z,61.94
2022-10-05T14:48:25.321Z,61.72
2022-10-05T14:49:28.115Z,61.58
2022-10-05T14:50:32.606Z,61.27
2022-10-05T14:51:36.256Z,61.56
2022-10-05T14:52:41.023Z,60.87
2022-10-05T14:53:47.111Z,60.93
2022-10-05T14:55:02.091Z,60.49
2022-10-05T14:56:26.711Z,60.68
2022-10-05T14:57:40.595Z,60.82
2022-10-05T14:59:24.310Z,60.44
2022-10-05T15:00:27.391Z,60.79
2022-10-05T15:01:31.473Z,60.29
2022-10-05T15:02:47.940Z,60.04
2022-10-05T15:04:00.283Z,59.99
2022-10-05T15:05:15.154Z,59.65
2022-10-05T15:06:26.866Z,59.88
2022-10-05T15:07:36.028Z,59.46
2022-10-05T15:08:54.130Z,59.97
2022-10-05T15:10:19.866Z,60.00
2022-10-05T15:11:34.350Z,59.72
2022-10-05T15:12:42.726Z,60.08
2022-10-05T15:13:47.448Z,59.69
2022-10-05T15:14:51.425Z,60.06
2022-10-05T15:15:57.455Z,59.92
2022-10-05T15:17:03.300Z,59.59
2022-10-05T15:18:14.986Z,59.94
2022-10-05T15:19:20.833Z,59.69
2022-10-05T15:20:29.541Z,59.64
2022-10-05T15:21:46.154Z,59.93
2022-10-05T15:22:54.678Z,59.65
2022-10-05T15:24:00.945Z,59.86
2022-10-05T15:25:14.722Z,60.17
2022-10-05T15:26:36.121Z,59.79
2022-10-05T15:27:53.785Z,59.85
2022-10-05T15:29:01.748Z,60.02
2022-10-05T15:30:10.749Z,60.28
2022-10-05T15:31:23.532Z,60.60
2022-10-05T15:32:42.413Z,60.40
2022-10-05T15:33:53.772Z,60.76
2022-10-05T15:35:21.946Z,60.56
2022-10-05T15:36:26.757Z,60.54
2022-10-05T15:37:35.757Z,60.61
2022-10-05T15:38:52.018Z,60.80
2022-10-05T15:39:56.934Z,61.11
2022-10-05T15:41:09.245Z,61.11
2022-10-05T15:42:16.087Z,60.91
2022-10-05T15:43:22.064Z,61.31
2022-10-05T15:44:38.141Z,61.11
2022-10-05T15:45:43.826Z,61.71
2022-10-05T15:46:56.330Z,61.40
2022-10-05T15:48:03.238Z,61.69
2022-10-05T15:49:25.400Z,61.99
2022-10-05T15:50:32.279Z,62.05
2022-10-05T15:51:49.978Z,62.01
2022-10-05T15:53:02.384Z,62.13
2022-10-05T15:54:29.787Z,62.02
2022-10-05T15:55:41.992Z,61.85